sensor_id;sensor_type;location;lat;lon;timestamp;P1;durP1;ratioP1;P2;durP2;ratioP2
9208;SDS011;4639;48.862;9.188;2022-07-29T00:00:04;8.48;;;5.50;;
9208;SDS011;4639;48.862;9.188;2022-07-29T00:02:31;7.43;;;4.95;;
9208;SDS011;4639;48.862;9.188;2022-07-29T00:04:57;5.90;;;5.07;;
9208;SDS011;4639;48.862;9.188;2022-07-29T00:07:23;8.70;;;4.90;;
9208;SDS011;4639;48.862;9.188;2022-07-29T00:09:49;6.65;;;5.32;;
9208;SDS011;4639;48.862;9.188;2022-07-29T00:12:14;4.93;;;4.43;;
9208;SDS011;4639;48.862;9.188;2022-07-29T00:14:40;6.25;;;4.97;;
9208;SDS011;4639;48.862;9.188;2022-07-29T00:17:06;6.00;;;5.32;;
9208;SDS011;4639;48.862;9.188;2022-07-29T00:19:31;8.93;;;5.93;;
9208;SDS011;4639;48.862;9.188;2022-07-29T00:21:59;12.00;;;5.30;;
9208;SDS011;4639;48.862;9.188;2022-07-29T00:24:24;10.50;;;5.63;;
9208;SDS011;4639;48.862;9.188;2022-07-29T00:26:50;6.78;;;5.22;;
9208;SDS011;4639;48.862;9.188;2022-07-29T00:29:16;7.78;;;5.10;;
9208;SDS011;4639;48.862;9.188;2022-07-29T00:31:41;7.65;;;5.63;;
9208;SDS011;4639;48.862;9.188;2022-07-29T00:34:07;7.35;;;5.03;;
9208;SDS011;4639;48.862;9.188;2022-07-29T00:36:52;6.20;;;5.00;;
9208;SDS011;4639;48.862;9.188;2022-07-29T00:39:18;7.53;;;5.20;;
9208;SDS011;4639;48.862;9.188;2022-07-29T00:41:43;10.23;;;4.90;;
9208;SDS011;4639;48.862;9.188;2022-07-29T00:44:09;5.80;;;5.20;;
9208;SDS011;4639;48.862;9.188;2022-07-29T00:46:34;6.32;;;5.25;;
9208;SDS011;4639;48.862;9.188;2022-07-29T00:49:00;8.07;;;5.45;;
9208;SDS011;4639;48.862;9.188;2022-07-29T00:51:26;11.35;;;5.10;;
9208;SDS011;4639;48.862;9.188;2022-07-29T00:53:52;7.15;;;5.38;;
9208;SDS011;4639;48.862;9.188;2022-07-29T00:56:18;8.45;;;5.15;;
9208;SDS011;4639;48.862;9.188;2022-07-29T00:58:44;6.97;;;4.88;;
9208;SDS011;4639;48.862;9.188;2022-07-29T01:01:12;5.32;;;4.82;;
9208;SDS011;4639;48.862;9.188;2022-07-29T01:03:37;6.28;;;4.82;;
9208;SDS011;4639;48.862;9.188;2022-07-29T01:06:03;6.55;;;5.13;;
9208;SDS011;4639;48.862;9.188;2022-07-29T01:08:29;6.07;;;4.97;;
9208;SDS011;4639;48.862;9.188;2022-07-29T01:10:57;8.93;;;5.22;;
9208;SDS011;4639;48.862;9.188;2022-07-29T01:13:26;5.72;;;4.95;;
9208;SDS011;4639;48.862;9.188;2022-07-29T01:15:56;5.78;;;4.80;;
9208;SDS011;4639;48.862;9.188;2022-07-29T01:18:31;5.40;;;4.90;;
9208;SDS011;4639;48.862;9.188;2022-07-29T01:21:24;5.38;;;4.85;;
9208;SDS011;4639;48.862;9.188;2022-07-29T01:29:30;5.35;;;4.53;;
9208;SDS011;4639;48.862;9.188;2022-07-29T01:32:01;5.40;;;4.85;;
9208;SDS011;4639;48.862;9.188;2022-07-29T01:34:41;5.50;;;4.80;;
9208;SDS011;4639;48.862;9.188;2022-07-29T01:37:28;6.15;;;5.05;;
9208;SDS011;4639;48.862;9.188;2022-07-29T01:40:11;5.43;;;4.90;;
9208;SDS011;4639;48.862;9.188;2022-07-29T01:42:45;6.35;;;5.05;;
9208;SDS011;4639;48.862;9.188;2022-07-29T01:45:15;5.25;;;4.65;;
9208;SDS011;4639;48.862;9.188;2022-07-29T01:47:46;7.68;;;5.28;;
9208;SDS011;4639;48.862;9.188;2022-07-29T01:50:21;5.50;;;4.90;;
9208;SDS011;4639;48.862;9.188;2022-07-29T01:52:59;6.03;;;4.93;;
9208;SDS011;4639;48.862;9.188;2022-07-29T01:55:28;5.88;;;5.38;;
9208;SDS011;4639;48.862;9.188;2022-07-29T01:57:57;6.10;;;5.50;;
9208;SDS011;4639;48.862;9.188;2022-07-29T02:00:24;6.85;;;4.97;;
9208;SDS011;4639;48.862;9.188;2022-07-29T02:02:51;7.40;;;5.22;;
9208;SDS011;4639;48.862;9.188;2022-07-29T02:05:20;5.82;;;5.10;;
9208;SDS011;4639;48.862;9.188;2022-07-29T02:07:48;8.95;;;5.20;;
9208;SDS011;4639;48.862;9.188;2022-07-29T02:10:16;7.07;;;5.53;;
9208;SDS011;4639;48.862;9.188;2022-07-29T02:12:46;5.57;;;5.07;;
9208;SDS011;4639;48.862;9.188;2022-07-29T02:15:14;6.30;;;4.82;;
9208;SDS011;4639;48.862;9.188;2022-07-29T02:17:43;6.47;;;5.82;;
9208;SDS011;4639;48.862;9.188;2022-07-29T02:20:16;9.20;;;6.15;;
9208;SDS011;4639;48.862;9.188;2022-07-29T02:22:42;6.13;;;5.32;;
9208;SDS011;4639;48.862;9.188;2022-07-29T02:25:10;7.63;;;5.60;;
9208;SDS011;4639;48.862;9.188;2022-07-29T02:27:37;6.43;;;5.60;;
9208;SDS011;4639;48.862;9.188;2022-07-29T02:30:04;6.93;;;5.85;;
9208;SDS011;4639;48.862;9.188;2022-07-29T02:32:32;6.30;;;4.93;;
9208;SDS011;4639;48.862;9.188;2022-07-29T02:35:00;5.53;;;4.97;;
9208;SDS011;4639;48.862;9.188;2022-07-29T02:37:27;5.78;;;5.07;;
9208;SDS011;4639;48.862;9.188;2022-07-29T02:39:54;6.57;;;5.70;;
9208;SDS011;4639;48.862;9.188;2022-07-29T02:42:22;5.88;;;5.28;;
9208;SDS011;4639;48.862;9.188;2022-07-29T02:44:51;6.32;;;5.20;;
9208;SDS011;4639;48.862;9.188;2022-07-29T02:47:24;6.15;;;5.20;;
9208;SDS011;4639;48.862;9.188;2022-07-29T02:50:04;5.78;;;5.20;;
9208;SDS011;4639;48.862;9.188;2022-07-29T02:52:37;7.40;;;6.10;;
9208;SDS011;4639;48.862;9.188;2022-07-29T03:00:40;6.82;;;5.60;;
9208;SDS011;4639;48.862;9.188;2022-07-29T03:03:08;8.68;;;5.85;;
9208;SDS011;4639;48.862;9.188;2022-07-29T03:05:37;8.63;;;5.90;;
9208;SDS011;4639;48.862;9.188;2022-07-29T03:08:05;7.80;;;6.13;;
9208;SDS011;4639;48.862;9.188;2022-07-29T03:10:33;5.88;;;5.28;;
9208;SDS011;4639;48.862;9.188;2022-07-29T03:13:02;6.20;;;5.55;;
9208;SDS011;4639;48.862;9.188;2022-07-29T03:15:29;5.65;;;5.03;;
9208;SDS011;4639;48.862;9.188;2022-07-29T03:17:55;6.07;;;5.32;;
9208;SDS011;4639;48.862;9.188;2022-07-29T03:20:21;6.32;;;5.25;;
9208;SDS011;4639;48.862;9.188;2022-07-29T03:22:47;6.97;;;5.80;;
9208;SDS011;4639;48.862;9.188;2022-07-29T03:25:17;6.55;;;5.88;;
9208;SDS011;4639;48.862;9.188;2022-07-29T03:27:45;7.43;;;5.30;;
9208;SDS011;4639;48.862;9.188;2022-07-29T03:30:11;6.90;;;5.75;;
9208;SDS011;4639;48.862;9.188;2022-07-29T03:32:38;7.85;;;5.65;;
9208;SDS011;4639;48.862;9.188;2022-07-29T03:35:04;11.45;;;5.72;;
9208;SDS011;4639;48.862;9.188;2022-07-29T03:37:31;5.97;;;5.40;;
9208;SDS011;4639;48.862;9.188;2022-07-29T03:39:58;6.25;;;5.75;;
9208;SDS011;4639;48.862;9.188;2022-07-29T03:42:26;6.20;;;5.55;;
9208;SDS011;4639;48.862;9.188;2022-07-29T03:44:56;7.20;;;5.75;;
9208;SDS011;4639;48.862;9.188;2022-07-29T03:47:24;9.80;;;5.70;;
9208;SDS011;4639;48.862;9.188;2022-07-29T03:49:53;6.43;;;5.70;;
9208;SDS011;4639;48.862;9.188;2022-07-29T03:52:24;6.40;;;5.45;;
9208;SDS011;4639;48.862;9.188;2022-07-29T03:54:50;7.95;;;5.65;;
9208;SDS011;4639;48.862;9.188;2022-07-29T03:57:16;6.47;;;5.53;;
9208;SDS011;4639;48.862;9.188;2022-07-29T03:59:45;6.15;;;5.57;;
9208;SDS011;4639;48.862;9.188;2022-07-29T04:02:11;7.45;;;5.80;;
9208;SDS011;4639;48.862;9.188;2022-07-29T04:04:37;6.72;;;6.13;;
9208;SDS011;4639;48.862;9.188;2022-07-29T04:07:04;6.93;;;5.60;;
9208;SDS011;4639;48.862;9.188;2022-07-29T04:09:29;8.10;;;6.30;;
9208;SDS011;4639;48.862;9.188;2022-07-29T04:11:55;8.80;;;6.05;;
9208;SDS011;4639;48.862;9.188;2022-07-29T04:14:21;7.63;;;6.20;;
9208;SDS011;4639;48.862;9.188;2022-07-29T04:16:46;6.40;;;5.80;;
9208;SDS011;4639;48.862;9.188;2022-07-29T04:19:12;6.75;;;5.57;;
9208;SDS011;4639;48.862;9.188;2022-07-29T04:21:41;7.00;;;6.07;;
9208;SDS011;4639;48.862;9.188;2022-07-29T04:24:07;5.75;;;5.22;;
9208;SDS011;4639;48.862;9.188;2022-07-29T04:26:33;6.82;;;6.07;;
9208;SDS011;4639;48.862;9.188;2022-07-29T04:28:59;6.28;;;5.78;;
9208;SDS011;4639;48.862;9.188;2022-07-29T04:31:25;9.85;;;6.20;;
9208;SDS011;4639;48.862;9.188;2022-07-29T04:33:51;8.68;;;6.07;;
9208;SDS011;4639;48.862;9.188;2022-07-29T04:36:17;7.90;;;5.85;;
9208;SDS011;4639;48.862;9.188;2022-07-29T04:38:42;6.00;;;5.50;;
9208;SDS011;4639;48.862;9.188;2022-07-29T04:41:08;6.93;;;6.22;;
9208;SDS011;4639;48.862;9.188;2022-07-29T04:43:34;8.90;;;6.05;;
9208;SDS011;4639;48.862;9.188;2022-07-29T04:46:00;6.55;;;5.70;;
9208;SDS011;4639;48.862;9.188;2022-07-29T04:48:28;9.65;;;6.50;;
9208;SDS011;4639;48.862;9.188;2022-07-29T04:50:54;7.65;;;7.00;;
9208;SDS011;4639;48.862;9.188;2022-07-29T04:53:19;7.00;;;6.30;;
9208;SDS011;4639;48.862;9.188;2022-07-29T04:55:45;9.45;;;6.53;;
9208;SDS011;4639;48.862;9.188;2022-07-29T04:58:11;9.27;;;6.63;;
9208;SDS011;4639;48.862;9.188;2022-07-29T05:00:36;6.90;;;6.20;;
9208;SDS011;4639;48.862;9.188;2022-07-29T05:03:03;7.07;;;6.25;;
9208;SDS011;4639;48.862;9.188;2022-07-29T05:05:28;9.57;;;6.80;;
9208;SDS011;4639;48.862;9.188;2022-07-29T05:07:54;9.70;;;6.28;;
9208;SDS011;4639;48.862;9.188;2022-07-29T05:10:20;7.25;;;6.55;;
9208;SDS011;4639;48.862;9.188;2022-07-29T05:12:46;9.40;;;6.60;;
9208;SDS011;4639;48.862;9.188;2022-07-29T05:15:12;11.00;;;7.30;;
9208;SDS011;4639;48.862;9.188;2022-07-29T05:17:37;10.68;;;6.72;;
9208;SDS011;4639;48.862;9.188;2022-07-29T05:20:03;7.82;;;5.97;;
9208;SDS011;4639;48.862;9.188;2022-07-29T05:22:30;7.85;;;6.72;;
9208;SDS011;4639;48.862;9.188;2022-07-29T05:24:55;9.25;;;7.10;;
9208;SDS011;4639;48.862;9.188;2022-07-29T05:27:21;7.50;;;6.80;;
9208;SDS011;4639;48.862;9.188;2022-07-29T05:29:47;7.72;;;7.03;;
9208;SDS011;4639;48.862;9.188;2022-07-29T05:32:12;8.93;;;7.07;;
9208;SDS011;4639;48.862;9.188;2022-07-29T05:34:38;11.18;;;7.00;;
9208;SDS011;4639;48.862;9.188;2022-07-29T05:37:04;8.07;;;6.60;;
9208;SDS011;4639;48.862;9.188;2022-07-29T05:39:30;7.53;;;6.70;;
9208;SDS011;4639;48.862;9.188;2022-07-29T05:41:55;7.75;;;6.70;;
9208;SDS011;4639;48.862;9.188;2022-07-29T05:44:21;6.97;;;6.38;;
9208;SDS011;4639;48.862;9.188;2022-07-29T05:46:47;7.43;;;6.55;;
9208;SDS011;4639;48.862;9.188;2022-07-29T05:49:12;8.85;;;6.20;;
9208;SDS011;4639;48.862;9.188;2022-07-29T05:51:38;9.13;;;6.20;;
9208;SDS011;4639;48.862;9.188;2022-07-29T05:54:04;11.88;;;6.22;;
9208;SDS011;4639;48.862;9.188;2022-07-29T05:56:29;8.32;;;6.20;;
9208;SDS011;4639;48.862;9.188;2022-07-29T05:58:55;7.50;;;6.15;;
9208;SDS011;4639;48.862;9.188;2022-07-29T06:01:20;8.77;;;6.22;;
9208;SDS011;4639;48.862;9.188;2022-07-29T06:03:46;7.38;;;6.03;;
9208;SDS011;4639;48.862;9.188;2022-07-29T06:06:12;6.82;;;5.60;;
9208;SDS011;4639;48.862;9.188;2022-07-29T06:08:37;7.10;;;6.00;;
9208;SDS011;4639;48.862;9.188;2022-07-29T06:11:04;6.55;;;5.88;;
9208;SDS011;4639;48.862;9.188;2022-07-29T06:13:30;8.45;;;5.60;;
9208;SDS011;4639;48.862;9.188;2022-07-29T06:15:55;6.07;;;5.43;;
9208;SDS011;4639;48.862;9.188;2022-07-29T06:18:21;9.00;;;5.57;;
9208;SDS011;4639;48.862;9.188;2022-07-29T06:20:51;8.77;;;5.57;;
9208;SDS011;4639;48.862;9.188;2022-07-29T06:23:18;6.53;;;5.47;;
9208;SDS011;4639;48.862;9.188;2022-07-29T06:25:45;5.80;;;5.30;;
9208;SDS011;4639;48.862;9.188;2022-07-29T06:28:11;5.35;;;4.75;;
9208;SDS011;4639;48.862;9.188;2022-07-29T06:30:37;6.95;;;4.93;;
9208;SDS011;4639;48.862;9.188;2022-07-29T06:33:03;7.60;;;4.40;;
9208;SDS011;4639;48.862;9.188;2022-07-29T06:35:28;6.97;;;4.85;;
9208;SDS011;4639;48.862;9.188;2022-07-29T06:37:54;5.97;;;4.70;;
9208;SDS011;4639;48.862;9.188;2022-07-29T06:40:20;6.95;;;4.60;;
9208;SDS011;4639;48.862;9.188;2022-07-29T06:43:04;6.30;;;4.30;;
9208;SDS011;4639;48.862;9.188;2022-07-29T06:45:30;7.63;;;4.15;;
9208;SDS011;4639;48.862;9.188;2022-07-29T06:47:59;4.50;;;4.07;;
9208;SDS011;4639;48.862;9.188;2022-07-29T06:50:25;7.72;;;4.28;;
9208;SDS011;4639;48.862;9.188;2022-07-29T06:52:50;7.85;;;4.20;;
9208;SDS011;4639;48.862;9.188;2022-07-29T06:55:16;6.97;;;4.00;;
9208;SDS011;4639;48.862;9.188;2022-07-29T06:57:44;5.30;;;3.53;;
9208;SDS011;4639;48.862;9.188;2022-07-29T07:00:10;4.28;;;3.55;;
9208;SDS011;4639;48.862;9.188;2022-07-29T07:02:36;6.55;;;3.80;;
9208;SDS011;4639;48.862;9.188;2022-07-29T07:05:02;4.50;;;3.80;;
9208;SDS011;4639;48.862;9.188;2022-07-29T07:07:28;5.13;;;3.58;;
9208;SDS011;4639;48.862;9.188;2022-07-29T07:09:53;3.50;;;3.20;;
9208;SDS011;4639;48.862;9.188;2022-07-29T07:12:19;8.27;;;3.20;;
9208;SDS011;4639;48.862;9.188;2022-07-29T07:14:44;5.38;;;3.63;;
9208;SDS011;4639;48.862;9.188;2022-07-29T07:17:10;4.72;;;3.63;;
9208;SDS011;4639;48.862;9.188;2022-07-29T07:19:36;7.45;;;3.40;;
9208;SDS011;4639;48.862;9.188;2022-07-29T07:22:01;6.75;;;3.47;;
9208;SDS011;4639;48.862;9.188;2022-07-29T07:24:27;3.38;;;3.08;;
9208;SDS011;4639;48.862;9.188;2022-07-29T07:26:52;6.10;;;3.53;;
9208;SDS011;4639;48.862;9.188;2022-07-29T07:29:18;6.63;;;3.22;;
9208;SDS011;4639;48.862;9.188;2022-07-29T07:31:44;5.63;;;3.28;;
9208;SDS011;4639;48.862;9.188;2022-07-29T07:34:10;7.28;;;3.40;;
9208;SDS011;4639;48.862;9.188;2022-07-29T07:36:36;6.57;;;3.20;;
9208;SDS011;4639;48.862;9.188;2022-07-29T07:39:02;6.88;;;3.65;;
9208;SDS011;4639;48.862;9.188;2022-07-29T07:41:28;3.95;;;3.20;;
9208;SDS011;4639;48.862;9.188;2022-07-29T07:43:54;8.63;;;3.42;;
9208;SDS011;4639;48.862;9.188;2022-07-29T07:46:19;4.53;;;3.47;;
9208;SDS011;4639;48.862;9.188;2022-07-29T07:48:45;4.30;;;2.90;;
9208;SDS011;4639;48.862;9.188;2022-07-29T07:51:10;7.53;;;3.20;;
9208;SDS011;4639;48.862;9.188;2022-07-29T07:53:36;5.72;;;3.30;;
9208;SDS011;4639;48.862;9.188;2022-07-29T07:56:02;4.55;;;2.78;;
9208;SDS011;4639;48.862;9.188;2022-07-29T07:58:29;4.22;;;3.42;;
9208;SDS011;4639;48.862;9.188;2022-07-29T08:00:54;4.72;;;3.15;;
9208;SDS011;4639;48.862;9.188;2022-07-29T08:03:20;7.43;;;3.20;;
9208;SDS011;4639;48.862;9.188;2022-07-29T08:05:46;6.38;;;3.05;;
9208;SDS011;4639;48.862;9.188;2022-07-29T08:08:12;4.20;;;3.03;;
9208;SDS011;4639;48.862;9.188;2022-07-29T08:10:38;4.10;;;3.33;;
9208;SDS011;4639;48.862;9.188;2022-07-29T08:13:19;4.28;;;3.40;;
9208;SDS011;4639;48.862;9.188;2022-07-29T08:15:46;5.68;;;3.13;;
9208;SDS011;4639;48.862;9.188;2022-07-29T08:18:12;5.30;;;3.13;;
9208;SDS011;4639;48.862;9.188;2022-07-29T08:20:38;3.20;;;2.80;;
9208;SDS011;4639;48.862;9.188;2022-07-29T08:23:05;5.45;;;3.20;;
9208;SDS011;4639;48.862;9.188;2022-07-29T08:25:33;5.22;;;3.08;;
9208;SDS011;4639;48.862;9.188;2022-07-29T08:28:03;3.65;;;3.35;;
9208;SDS011;4639;48.862;9.188;2022-07-29T08:30:29;4.15;;;3.67;;
9208;SDS011;4639;48.862;9.188;2022-07-29T08:32:55;4.22;;;3.10;;
9208;SDS011;4639;48.862;9.188;2022-07-29T08:35:22;5.20;;;3.15;;
9208;SDS011;4639;48.862;9.188;2022-07-29T08:37:49;4.65;;;3.30;;
9208;SDS011;4639;48.862;9.188;2022-07-29T08:40:15;4.70;;;3.40;;
9208;SDS011;4639;48.862;9.188;2022-07-29T08:42:41;3.97;;;3.35;;
9208;SDS011;4639;48.862;9.188;2022-07-29T08:45:09;8.10;;;3.47;;
9208;SDS011;4639;48.862;9.188;2022-07-29T08:47:35;5.35;;;3.75;;
9208;SDS011;4639;48.862;9.188;2022-07-29T08:50:04;8.07;;;3.92;;
9208;SDS011;4639;48.862;9.188;2022-07-29T08:52:31;5.63;;;3.30;;
9208;SDS011;4639;48.862;9.188;2022-07-29T08:55:00;8.27;;;3.72;;
9208;SDS011;4639;48.862;9.188;2022-07-29T08:57:27;5.40;;;3.10;;
9208;SDS011;4639;48.862;9.188;2022-07-29T08:59:54;7.72;;;3.35;;
9208;SDS011;4639;48.862;9.188;2022-07-29T09:02:22;4.32;;;3.17;;
9208;SDS011;4639;48.862;9.188;2022-07-29T09:04:48;4.35;;;3.53;;
9208;SDS011;4639;48.862;9.188;2022-07-29T09:07:15;3.95;;;3.55;;
9208;SDS011;4639;48.862;9.188;2022-07-29T09:09:42;5.82;;;3.17;;
9208;SDS011;4639;48.862;9.188;2022-07-29T09:12:09;5.03;;;3.05;;
9208;SDS011;4639;48.862;9.188;2022-07-29T09:14:36;5.85;;;3.00;;
9208;SDS011;4639;48.862;9.188;2022-07-29T09:17:05;6.10;;;3.05;;
9208;SDS011;4639;48.862;9.188;2022-07-29T09:19:32;4.75;;;3.17;;
9208;SDS011;4639;48.862;9.188;2022-07-29T09:22:01;5.60;;;3.63;;
9208;SDS011;4639;48.862;9.188;2022-07-29T09:26:59;3.42;;;2.88;;
9208;SDS011;4639;48.862;9.188;2022-07-29T09:29:26;4.63;;;2.75;;
9208;SDS011;4639;48.862;9.188;2022-07-29T09:31:53;7.50;;;4.07;;
9208;SDS011;4639;48.862;9.188;2022-07-29T09:34:26;7.25;;;3.50;;
9208;SDS011;4639;48.862;9.188;2022-07-29T09:36:53;5.78;;;3.80;;
9208;SDS011;4639;48.862;9.188;2022-07-29T09:39:30;6.18;;;3.67;;
9208;SDS011;4639;48.862;9.188;2022-07-29T09:41:59;6.53;;;4.07;;
9208;SDS011;4639;48.862;9.188;2022-07-29T09:44:27;11.43;;;3.78;;
9208;SDS011;4639;48.862;9.188;2022-07-29T09:47:17;5.03;;;3.25;;
9208;SDS011;4639;48.862;9.188;2022-07-29T09:49:51;5.78;;;3.70;;
9208;SDS011;4639;48.862;9.188;2022-07-29T09:52:23;6.40;;;3.47;;
9208;SDS011;4639;48.862;9.188;2022-07-29T09:54:50;6.40;;;4.10;;
9208;SDS011;4639;48.862;9.188;2022-07-29T09:57:25;4.40;;;3.45;;
9208;SDS011;4639;48.862;9.188;2022-07-29T09:59:55;4.45;;;3.33;;
9208;SDS011;4639;48.862;9.188;2022-07-29T10:02:27;7.78;;;4.65;;
9208;SDS011;4639;48.862;9.188;2022-07-29T10:04:54;4.53;;;3.47;;
9208;SDS011;4639;48.862;9.188;2022-07-29T10:07:20;5.32;;;3.55;;
9208;SDS011;4639;48.862;9.188;2022-07-29T10:09:56;4.07;;;3.30;;
9208;SDS011;4639;48.862;9.188;2022-07-29T10:12:22;5.97;;;3.45;;
9208;SDS011;4639;48.862;9.188;2022-07-29T10:14:49;5.78;;;3.38;;
9208;SDS011;4639;48.862;9.188;2022-07-29T10:17:15;5.93;;;3.95;;
9208;SDS011;4639;48.862;9.188;2022-07-29T10:19:42;5.45;;;3.47;;
9208;SDS011;4639;48.862;9.188;2022-07-29T10:22:08;5.20;;;3.58;;
9208;SDS011;4639;48.862;9.188;2022-07-29T10:24:35;4.43;;;3.38;;
9208;SDS011;4639;48.862;9.188;2022-07-29T10:27:05;7.18;;;3.42;;
9208;SDS011;4639;48.862;9.188;2022-07-29T10:29:32;5.80;;;3.60;;
9208;SDS011;4639;48.862;9.188;2022-07-29T10:32:10;5.63;;;3.55;;
9208;SDS011;4639;48.862;9.188;2022-07-29T10:37:37;5.88;;;3.53;;
9208;SDS011;4639;48.862;9.188;2022-07-29T10:40:39;9.20;;;3.60;;
9208;SDS011;4639;48.862;9.188;2022-07-29T10:43:37;5.38;;;3.38;;
9208;SDS011;4639;48.862;9.188;2022-07-29T10:46:07;7.45;;;4.65;;
9208;SDS011;4639;48.862;9.188;2022-07-29T10:48:34;6.72;;;3.67;;
9208;SDS011;4639;48.862;9.188;2022-07-29T10:54:01;7.00;;;3.90;;
9208;SDS011;4639;48.862;9.188;2022-07-29T10:56:23;9.95;;;4.13;;
9208;SDS011;4639;48.862;9.188;2022-07-29T11:01:46;6.30;;;4.22;;
9208;SDS011;4639;48.862;9.188;2022-07-29T11:04:13;9.45;;;3.60;;
9208;SDS011;4639;48.862;9.188;2022-07-29T11:09:23;9.75;;;3.42;;
9208;SDS011;4639;48.862;9.188;2022-07-29T11:11:48;4.30;;;3.72;;
9208;SDS011;4639;48.862;9.188;2022-07-29T11:14:14;12.27;;;4.10;;
9208;SDS011;4639;48.862;9.188;2022-07-29T11:17:01;6.75;;;3.63;;
9208;SDS011;4639;48.862;9.188;2022-07-29T11:19:29;8.40;;;3.90;;
9208;SDS011;4639;48.862;9.188;2022-07-29T11:21:55;6.53;;;3.88;;
9208;SDS011;4639;48.862;9.188;2022-07-29T11:24:27;6.30;;;3.75;;
9208;SDS011;4639;48.862;9.188;2022-07-29T11:29:50;6.22;;;4.38;;
9208;SDS011;4639;48.862;9.188;2022-07-29T11:32:29;8.35;;;3.78;;
9208;SDS011;4639;48.862;9.188;2022-07-29T11:35:26;10.05;;;3.65;;
9208;SDS011;4639;48.862;9.188;2022-07-29T11:49:13;6.95;;;3.85;;
9208;SDS011;4639;48.862;9.188;2022-07-29T11:52:05;9.10;;;4.30;;
9208;SDS011;4639;48.862;9.188;2022-07-29T11:54:33;7.00;;;4.43;;
9208;SDS011;4639;48.862;9.188;2022-07-29T11:56:59;5.45;;;4.40;;
9208;SDS011;4639;48.862;9.188;2022-07-29T11:59:25;6.85;;;4.45;;
9208;SDS011;4639;48.862;9.188;2022-07-29T12:01:55;6.50;;;4.43;;
9208;SDS011;4639;48.862;9.188;2022-07-29T12:04:22;7.97;;;4.88;;
9208;SDS011;4639;48.862;9.188;2022-07-29T12:06:55;8.50;;;4.65;;
9208;SDS011;4639;48.862;9.188;2022-07-29T12:09:21;5.32;;;4.30;;
9208;SDS011;4639;48.862;9.188;2022-07-29T12:11:48;7.22;;;4.15;;
9208;SDS011;4639;48.862;9.188;2022-07-29T12:14:30;7.22;;;4.55;;
9208;SDS011;4639;48.862;9.188;2022-07-29T12:16:57;5.97;;;4.20;;
9208;SDS011;4639;48.862;9.188;2022-07-29T12:19:25;6.90;;;3.83;;
9208;SDS011;4639;48.862;9.188;2022-07-29T12:21:53;6.50;;;4.07;;
9208;SDS011;4639;48.862;9.188;2022-07-29T12:24:20;9.60;;;4.15;;
9208;SDS011;4639;48.862;9.188;2022-07-29T12:26:58;5.45;;;3.85;;
9208;SDS011;4639;48.862;9.188;2022-07-29T12:29:25;4.97;;;3.50;;
9208;SDS011;4639;48.862;9.188;2022-07-29T12:31:52;6.68;;;4.13;;
9208;SDS011;4639;48.862;9.188;2022-07-29T12:34:19;8.25;;;4.50;;
9208;SDS011;4639;48.862;9.188;2022-07-29T12:36:51;6.80;;;4.68;;
9208;SDS011;4639;48.862;9.188;2022-07-29T12:39:17;6.22;;;4.35;;
9208;SDS011;4639;48.862;9.188;2022-07-29T12:41:43;6.57;;;4.00;;
9208;SDS011;4639;48.862;9.188;2022-07-29T12:44:10;6.35;;;3.53;;
9208;SDS011;4639;48.862;9.188;2022-07-29T12:46:36;5.13;;;3.40;;
9208;SDS011;4639;48.862;9.188;2022-07-29T12:49:02;4.80;;;3.78;;
9208;SDS011;4639;48.862;9.188;2022-07-29T12:54:12;5.20;;;3.30;;
9208;SDS011;4639;48.862;9.188;2022-07-29T12:56:43;4.63;;;3.33;;
9208;SDS011;4639;48.862;9.188;2022-07-29T12:59:16;4.18;;;3.33;;
9208;SDS011;4639;48.862;9.188;2022-07-29T13:01:43;6.28;;;3.42;;
9208;SDS011;4639;48.862;9.188;2022-07-29T13:04:23;6.32;;;3.85;;
9208;SDS011;4639;48.862;9.188;2022-07-29T13:07:03;5.82;;;3.80;;
9208;SDS011;4639;48.862;9.188;2022-07-29T13:09:41;9.18;;;3.78;;
9208;SDS011;4639;48.862;9.188;2022-07-29T13:12:09;6.05;;;3.55;;
9208;SDS011;4639;48.862;9.188;2022-07-29T13:14:40;6.30;;;3.65;;
9208;SDS011;4639;48.862;9.188;2022-07-29T13:19:34;5.57;;;3.22;;
9208;SDS011;4639;48.862;9.188;2022-07-29T13:22:11;8.48;;;3.40;;
9208;SDS011;4639;48.862;9.188;2022-07-29T13:24:45;7.13;;;3.72;;
9208;SDS011;4639;48.862;9.188;2022-07-29T13:27:23;6.93;;;3.50;;
9208;SDS011;4639;48.862;9.188;2022-07-29T13:30:01;4.18;;;3.17;;
9208;SDS011;4639;48.862;9.188;2022-07-29T13:32:29;4.40;;;3.65;;
9208;SDS011;4639;48.862;9.188;2022-07-29T13:34:56;7.22;;;3.35;;
9208;SDS011;4639;48.862;9.188;2022-07-29T13:37:23;8.68;;;3.05;;
9208;SDS011;4639;48.862;9.188;2022-07-29T13:39:49;6.38;;;3.13;;
9208;SDS011;4639;48.862;9.188;2022-07-29T13:42:15;3.80;;;3.10;;
9208;SDS011;4639;48.862;9.188;2022-07-29T13:44:40;5.20;;;3.08;;
9208;SDS011;4639;48.862;9.188;2022-07-29T13:47:06;8.70;;;3.78;;
9208;SDS011;4639;48.862;9.188;2022-07-29T13:49:33;3.85;;;3.38;;
9208;SDS011;4639;48.862;9.188;2022-07-29T13:51:59;6.93;;;3.25;;
9208;SDS011;4639;48.862;9.188;2022-07-29T13:54:25;6.78;;;3.10;;
9208;SDS011;4639;48.862;9.188;2022-07-29T13:56:51;5.60;;;3.78;;
9208;SDS011;4639;48.862;9.188;2022-07-29T13:59:17;6.00;;;3.38;;
9208;SDS011;4639;48.862;9.188;2022-07-29T14:01:44;4.43;;;3.20;;
9208;SDS011;4639;48.862;9.188;2022-07-29T14:04:10;4.18;;;3.47;;
9208;SDS011;4639;48.862;9.188;2022-07-29T14:06:36;5.03;;;3.70;;
9208;SDS011;4639;48.862;9.188;2022-07-29T14:09:02;3.50;;;3.20;;
9208;SDS011;4639;48.862;9.188;2022-07-29T14:11:31;6.18;;;4.20;;
9208;SDS011;4639;48.862;9.188;2022-07-29T14:13:57;4.57;;;3.47;;
9208;SDS011;4639;48.862;9.188;2022-07-29T14:16:23;5.70;;;3.58;;
9208;SDS011;4639;48.862;9.188;2022-07-29T14:18:48;4.15;;;3.25;;
9208;SDS011;4639;48.862;9.188;2022-07-29T14:21:14;7.38;;;3.78;;
9208;SDS011;4639;48.862;9.188;2022-07-29T14:23:39;5.13;;;3.88;;
9208;SDS011;4639;48.862;9.188;2022-07-29T14:26:05;6.28;;;3.63;;
9208;SDS011;4639;48.862;9.188;2022-07-29T14:28:31;8.73;;;3.75;;
9208;SDS011;4639;48.862;9.188;2022-07-29T14:30:57;4.30;;;3.60;;
9208;SDS011;4639;48.862;9.188;2022-07-29T14:33:23;6.72;;;3.50;;
9208;SDS011;4639;48.862;9.188;2022-07-29T14:35:48;6.93;;;3.50;;
9208;SDS011;4639;48.862;9.188;2022-07-29T14:38:14;5.78;;;4.22;;
9208;SDS011;4639;48.862;9.188;2022-07-29T14:40:39;4.78;;;4.13;;
9208;SDS011;4639;48.862;9.188;2022-07-29T14:43:05;6.07;;;4.05;;
9208;SDS011;4639;48.862;9.188;2022-07-29T14:45:31;10.35;;;4.20;;
9208;SDS011;4639;48.862;9.188;2022-07-29T14:47:56;5.80;;;4.32;;
9208;SDS011;4639;48.862;9.188;2022-07-29T14:50:22;5.68;;;3.83;;
9208;SDS011;4639;48.862;9.188;2022-07-29T14:52:48;6.97;;;4.00;;
9208;SDS011;4639;48.862;9.188;2022-07-29T14:55:13;4.15;;;3.60;;
9208;SDS011;4639;48.862;9.188;2022-07-29T14:57:39;5.90;;;3.72;;
9208;SDS011;4639;48.862;9.188;2022-07-29T15:00:05;5.97;;;3.60;;
9208;SDS011;4639;48.862;9.188;2022-07-29T15:02:35;6.53;;;3.67;;
9208;SDS011;4639;48.862;9.188;2022-07-29T15:05:00;4.68;;;3.60;;
9208;SDS011;4639;48.862;9.188;2022-07-29T15:07:27;5.40;;;3.35;;
9208;SDS011;4639;48.862;9.188;2022-07-29T15:09:53;6.57;;;3.50;;
9208;SDS011;4639;48.862;9.188;2022-07-29T15:12:18;11.65;;;4.15;;
9208;SDS011;4639;48.862;9.188;2022-07-29T15:14:44;8.95;;;3.95;;
9208;SDS011;4639;48.862;9.188;2022-07-29T15:17:09;7.50;;;4.50;;
9208;SDS011;4639;48.862;9.188;2022-07-29T15:19:35;7.53;;;4.50;;
9208;SDS011;4639;48.862;9.188;2022-07-29T15:22:01;11.13;;;4.72;;
9208;SDS011;4639;48.862;9.188;2022-07-29T15:24:26;6.43;;;4.70;;
9208;SDS011;4639;48.862;9.188;2022-07-29T15:26:58;4.65;;;4.25;;
9208;SDS011;4639;48.862;9.188;2022-07-29T15:29:42;7.45;;;4.45;;
9208;SDS011;4639;48.862;9.188;2022-07-29T15:32:39;7.43;;;4.93;;
9208;SDS011;4639;48.862;9.188;2022-07-29T15:35:05;5.72;;;4.45;;
9208;SDS011;4639;48.862;9.188;2022-07-29T15:37:31;4.75;;;4.00;;
9208;SDS011;4639;48.862;9.188;2022-07-29T15:40:35;6.57;;;4.38;;
9208;SDS011;4639;48.862;9.188;2022-07-29T15:43:06;8.82;;;4.80;;
9208;SDS011;4639;48.862;9.188;2022-07-29T15:45:43;7.47;;;4.60;;
9208;SDS011;4639;48.862;9.188;2022-07-29T15:48:29;7.30;;;4.50;;
9208;SDS011;4639;48.862;9.188;2022-07-29T15:50:55;7.30;;;4.20;;
9208;SDS011;4639;48.862;9.188;2022-07-29T15:53:27;8.00;;;3.72;;
9208;SDS011;4639;48.862;9.188;2022-07-29T15:56:11;10.52;;;3.28;;
9208;SDS011;4639;48.862;9.188;2022-07-29T15:59:29;5.70;;;4.82;;
9208;SDS011;4639;48.862;9.188;2022-07-29T16:01:55;8.77;;;5.72;;
9208;SDS011;4639;48.862;9.188;2022-07-29T16:04:21;6.63;;;4.97;;
9208;SDS011;4639;48.862;9.188;2022-07-29T16:06:47;7.93;;;5.50;;